Aérodrome :
LOGIN :

S'inscrire | Disclaimer

   EN    FR    IT 

 










Légende :    VFR   VFR Marginal   IFR   IFR Intensif   IFR Très Intensif
Visi : 
Plafond : 
>= 8 km
>= 3000ft
5 à 8 km
1000 à 3000 ft
1500m à 5 km
500 à 1000 ft
800 à 1500m
200 à 500 ft
< 800m
< 200 ft
Symboles :   Orages  Brouillard  Fortes neiges  Fortes précipitations  Vent > 20 kt
SIGMETs :   Divers  Orages  Givrage  Turbulence  Onde Orograph.  Cendres Volcan.







- Altitude de l'aérodrome : 1830 ft


EBLB - Butgenbach Elsenborn

DERNIER METAR :
  • 170455Z AUTO 34007KT 5000 -DZ OVC005/// 10/09 Q1021 YLO

METARs EXPIRÉS :
  • 170425Z AUTO 35005KT 5000 BR OVC004/// 10/10 Q1021 YLO
  • 170355Z AUTO 32004KT 2900 DZ OVC006/// 10/10 Q1021 YLO
  • 170325Z AUTO 34004KT 5000 BR OVC006/// 10/10 Q1021 YLO
  • 170255Z AUTO 34003KT 5000 OVC010/// 10/10 Q1021 GRN
  • 170225Z AUTO 02003KT 8000 BKN008/// OVC020/// 10/10 Q1021 GRN

Prévision TAF périmée.
Pas de NOTAMs connus pour ce terrain.



MET'MAP, la Météo Aéronautique d'un coup d'oeil ! - Copyright ORBIFLY Décembre 2007 - Disclaimer

ORBIFLY MET'MAP TEAM :

Programmation & Développement : Alexandra Zaïnal
Conception & Développement : Baudouin d'Aumeries
Co-Programmation & Développement : Marc-Olivier Méhu
Soutien technique & logistique : Manuel Goepfert

Contact : metmap@orbifly.com




SOURCES & CREDITS :

   NOAA